createdAt,value
2018-05-19T12:13:57.314Z,1664.00
2018-05-19T12:14:57.170Z,2272.00
2018-05-19T12:15:57.168Z,2040.00
2018-05-19T12:16:57.116Z,2004.00
2018-05-19T12:17:57.124Z,2148.00
2018-05-19T12:18:57.077Z,2676.00
2018-05-19T12:19:57.053Z,2876.00
2018-05-19T12:20:57.062Z,2844.00
2018-05-19T12:21:57.044Z,2780.00
2018-05-19T12:22:57.013Z,2752.00
2018-05-19T12:23:56.991Z,2688.00
2018-05-19T12:24:56.967Z,2704.00
2018-05-19T12:25:56.944Z,2764.00
2018-05-19T12:26:56.926Z,2908.00
2018-05-19T12:27:56.871Z,3180.00
2018-05-19T12:28:56.934Z,3612.00
2018-05-19T12:29:56.828Z,4192.00
2018-05-19T12:30:56.800Z,4824.00
2018-05-19T12:31:56.776Z,5668.00
2018-05-19T12:32:56.756Z,6776.00
2018-05-19T12:33:56.739Z,7992.00
2018-05-19T12:34:56.715Z,9176.00
2018-05-19T12:35:56.717Z,10164.00
2018-05-19T12:36:56.695Z,10740.00
2018-05-19T12:37:56.645Z,10400.00
2018-05-19T12:38:56.654Z,8888.00
2018-05-19T12:39:56.626Z,7052.00
2018-05-19T12:40:56.579Z,5520.00
2018-05-19T12:41:56.552Z,4696.00
2018-05-19T12:42:56.534Z,4132.00
2018-05-19T12:43:56.508Z,3904.00
2018-05-19T12:44:56.489Z,4232.00
2018-05-19T12:45:56.494Z,4936.00
2018-05-19T12:46:56.466Z,5856.00
2018-05-19T12:47:56.444Z,6920.00
2018-05-19T12:48:56.435Z,7916.00
2018-05-19T12:49:56.400Z,8864.00
2018-05-19T12:50:56.351Z,9808.00
2018-05-19T12:51:56.354Z,11368.00
2018-05-19T12:52:56.319Z,13688.00
2018-05-19T12:53:56.295Z,16792.00
2018-05-19T12:54:56.283Z,21056.00
2018-05-19T12:55:56.261Z,25248.00
2018-05-19T12:56:56.217Z,27744.00
2018-05-19T12:57:56.223Z,29184.00
2018-05-19T12:58:56.193Z,30592.00
2018-05-19T12:59:56.146Z,61408.00
2018-05-19T13:00:56.149Z,69408.00
2018-05-19T13:01:56.116Z,38016.00
2018-05-19T13:02:56.084Z,40672.00
2018-05-19T13:03:56.058Z,61312.00
2018-05-19T13:04:56.045Z,55040.00
2018-05-19T13:05:56.033Z,36480.00
2018-05-19T13:06:55.997Z,30496.00
2018-05-19T13:07:56.066Z,34112.00
2018-05-19T13:08:55.970Z,32320.00
2018-05-19T13:09:55.941Z,29088.00
2018-05-19T13:10:55.923Z,25056.00
2018-05-19T13:11:55.900Z,24288.00
2018-05-19T13:12:55.877Z,25504.00
2018-05-19T13:13:55.854Z,27072.00
2018-05-19T13:14:55.850Z,30432.00
2018-05-19T13:15:55.812Z,39360.00
2018-05-19T13:16:55.796Z,33440.00
2018-05-19T13:17:55.775Z,35328.00
2018-05-19T13:18:55.751Z,38208.00
2018-05-19T13:19:55.737Z,65760.00
2018-05-19T13:20:55.730Z,58752.00
2018-05-19T13:21:55.710Z,27520.00
2018-05-19T13:22:55.670Z,24992.00
2018-05-19T13:23:55.656Z,25984.00
2018-05-19T13:24:55.652Z,27520.00
2018-05-19T13:25:55.752Z,28768.00
2018-05-19T13:26:55.594Z,29728.00
2018-05-19T13:27:55.579Z,30144.00
2018-05-19T13:29:28.774Z,30432.00
2018-05-19T13:29:55.538Z,30816.00
2018-05-19T13:30:55.540Z,30368.00
2018-05-19T13:31:55.520Z,29792.00
2018-05-19T13:32:55.475Z,28416.00
2018-05-19T13:33:55.454Z,25952.00
2018-05-19T13:34:55.466Z,24384.00
2018-05-19T13:35:55.420Z,22368.00
2018-05-19T13:36:55.395Z,20864.00
2018-05-19T13:37:55.403Z,19456.00
2018-05-19T13:38:55.358Z,17984.00
2018-05-19T13:39:55.371Z,16520.00
2018-05-19T13:40:55.321Z,15320.00
2018-05-19T13:41:55.302Z,14340.00
2018-05-19T13:42:55.277Z,13552.00
2018-05-19T13:43:55.283Z,12980.00
2018-05-19T13:44:55.235Z,12660.00
2018-05-19T13:45:55.221Z,12520.00
2018-05-19T13:46:55.209Z,12424.00
2018-05-19T13:47:55.196Z,12112.00
2018-05-19T13:48:55.150Z,11440.00
2018-05-19T13:49:55.133Z,10648.00
2018-05-19T13:50:55.135Z,10060.00
2018-05-19T13:51:55.118Z,9940.00
2018-05-19T13:52:55.071Z,10548.00
2018-05-19T13:53:55.072Z,11892.00
2018-05-19T13:54:55.051Z,13696.00
2018-05-19T13:55:55.002Z,15676.00
2018-05-19T13:56:54.984Z,17856.00
2018-05-19T13:57:55.100Z,19488.00
2018-05-19T13:58:54.946Z,20416.00
2018-05-19T13:59:54.917Z,20864.00
2018-05-19T14:00:54.921Z,21312.00
2018-05-19T14:01:54.890Z,21920.00
2018-05-19T14:02:54.877Z,22880.00
2018-05-19T14:03:54.830Z,24416.00
2018-05-19T14:04:54.838Z,24128.00
2018-05-19T14:05:54.795Z,23936.00
2018-05-19T14:06:54.779Z,23904.00
2018-05-19T14:07:54.756Z,24352.00
2018-05-19T14:08:54.720Z,25056.00
2018-05-19T14:09:54.706Z,26208.00
2018-05-19T14:10:54.692Z,27648.00
2018-05-19T14:11:54.685Z,28000.00
2018-05-19T14:12:54.642Z,28288.00
2018-05-19T14:13:54.623Z,29824.00
2018-05-19T14:14:54.608Z,25760.00
2018-05-19T14:15:54.606Z,22752.00
2018-05-19T14:16:54.648Z,20864.00
2018-05-19T14:17:54.567Z,19488.00
2018-05-19T14:18:54.528Z,18656.00
2018-05-19T14:19:54.500Z,18240.00
2018-05-19T14:20:54.498Z,17984.00
2018-05-19T14:21:54.477Z,17952.00
2018-05-19T14:22:54.429Z,17856.00
2018-05-19T14:23:54.411Z,17344.00
2018-05-19T14:24:54.421Z,16716.00
2018-05-19T14:25:54.363Z,16188.00
2018-05-19T14:26:54.353Z,15864.00
2018-05-19T14:27:54.328Z,15692.00
2018-05-19T14:28:54.316Z,15452.00
2018-05-19T14:29:54.285Z,14968.00
2018-05-19T14:30:54.269Z,14444.00
2018-05-19T14:31:54.256Z,14036.00
2018-05-19T14:32:54.227Z,13688.00
2018-05-19T14:33:54.200Z,13308.00
2018-05-19T14:34:54.184Z,12988.00
2018-05-19T14:35:54.183Z,12808.00
2018-05-19T14:36:54.132Z,12612.00
2018-05-19T14:37:54.141Z,12368.00
2018-05-19T14:38:54.124Z,12244.00
2018-05-19T14:39:54.067Z,12280.00
2018-05-19T14:40:54.082Z,12376.00
2018-05-19T14:41:54.031Z,12556.00
2018-05-19T14:42:54.008Z,12704.00
2018-05-19T14:43:54.020Z,12752.00
2018-05-19T14:44:53.987Z,12812.00
2018-05-19T14:45:53.953Z,12896.00
2018-05-19T14:46:53.952Z,12876.00
2018-05-19T14:47:53.897Z,12716.00
2018-05-19T14:48:53.882Z,12616.00
2018-05-19T14:49:53.882Z,12676.00
2018-05-19T14:50:53.835Z,13084.00
2018-05-19T14:51:53.813Z,14068.00
2018-05-19T14:52:53.796Z,15980.00
2018-05-19T14:53:53.799Z,18656.00
2018-05-19T14:54:53.771Z,21248.00
2018-05-19T14:55:53.722Z,23168.00
2018-05-19T14:56:53.730Z,24608.00
2018-05-19T14:57:53.686Z,25664.00
2018-05-19T14:58:53.689Z,26464.00
2018-05-19T14:59:53.651Z,26976.00
2018-05-19T15:00:53.626Z,27200.00
2018-05-19T15:01:53.608Z,27136.00
2018-05-19T15:02:53.587Z,26816.00
2018-05-19T15:03:53.554Z,26304.00
2018-05-19T15:04:53.539Z,25952.00
2018-05-19T15:05:53.516Z,25664.00
2018-05-19T15:06:53.506Z,25312.00
2018-05-19T15:07:53.505Z,25888.00
2018-05-19T15:08:53.461Z,27168.00
2018-05-19T15:09:53.457Z,29568.00
2018-05-19T15:10:53.425Z,31584.00
2018-05-19T15:11:53.392Z,32992.00
2018-05-19T15:12:53.378Z,37248.00
2018-05-19T15:13:53.386Z,43680.00
2018-05-19T15:14:53.329Z,53408.00
2018-05-19T15:15:53.343Z,46848.00
2018-05-19T15:16:53.316Z,50656.00
2018-05-19T15:17:53.296Z,57408.00
2018-05-19T15:18:53.279Z,42560.00
2018-05-19T15:19:53.268Z,51424.00
2018-05-19T15:20:53.218Z,30624.00
2018-05-19T15:21:53.220Z,66848.00
2018-05-19T15:22:53.261Z,67872.00
2018-05-19T15:23:53.161Z,65024.00
2018-05-19T15:24:53.145Z,56256.00
2018-05-19T15:25:53.123Z,45216.00
2018-05-19T15:26:53.135Z,48416.00
2018-05-19T15:27:53.085Z,47136.00
2018-05-19T15:28:53.083Z,26464.00
2018-05-19T15:29:53.087Z,61376.00
2018-05-19T15:31:26.245Z,61056.00
2018-05-19T15:31:53.020Z,53792.00
2018-05-19T15:32:53.049Z,66304.00
2018-05-19T15:33:53.014Z,56544.00
2018-05-19T15:34:52.965Z,52928.00
2018-05-19T15:35:52.983Z,52928.00
2018-05-19T15:36:52.957Z,54752.00
2018-05-19T15:37:52.920Z,53888.00
2018-05-19T15:38:52.933Z,55264.00
2018-05-19T15:39:52.914Z,57536.00
2018-05-19T15:40:52.907Z,26176.00
2018-05-19T15:41:52.882Z,56544.00
2018-05-19T15:42:52.850Z,55200.00
2018-05-19T15:43:52.825Z,27040.00
2018-05-19T15:44:52.814Z,41280.00
2018-05-19T15:45:52.819Z,57568.00
2018-05-19T15:46:52.786Z,55648.00
2018-05-19T15:47:52.764Z,84736.00
2018-05-19T15:48:52.749Z,97472.00
2018-05-19T15:49:52.760Z,98752.00
2018-05-19T15:50:52.724Z,86240.00
2018-05-19T15:51:52.711Z,72160.00
2018-05-19T15:52:52.689Z,65984.00
2018-05-19T15:53:52.671Z,71840.00
2018-05-19T15:54:52.669Z,74144.00
2018-05-19T15:55:52.650Z,76864.00
2018-05-19T15:56:52.647Z,77280.00
2018-05-19T15:57:52.637Z,82496.00
2018-05-19T15:58:52.621Z,36448.00
2018-05-19T15:59:52.604Z,51648.00
2018-05-19T16:00:52.588Z,57760.00
2018-05-19T16:01:52.571Z,58880.00
2018-05-19T16:02:52.529Z,64128.00
2018-05-19T16:03:52.514Z,72000.00
2018-05-19T16:04:52.524Z,66400.00
2018-05-19T16:05:52.507Z,71232.00
2018-05-19T16:06:52.492Z,32896.00
2018-05-19T16:07:52.474Z,75840.00
2018-05-19T16:08:52.533Z,81056.00
2018-05-19T16:09:52.421Z,84256.00
2018-05-19T16:10:52.411Z,45088.00
2018-05-19T16:11:52.381Z,79776.00
2018-05-19T16:12:52.371Z,75200.00
2018-05-19T16:13:52.352Z,74016.00
2018-05-19T16:14:52.363Z,76896.00
2018-05-19T16:15:52.321Z,77120.00
2018-05-19T16:16:52.334Z,67264.00
2018-05-19T16:17:52.316Z,58272.00
2018-05-19T16:18:52.306Z,53472.00
2018-05-19T16:19:52.270Z,60736.00
2018-05-19T16:20:52.246Z,52224.00
2018-05-19T16:21:52.251Z,47328.00
2018-05-19T16:22:52.211Z,44544.00
2018-05-19T16:23:52.211Z,33632.00
2018-05-19T16:24:52.188Z,30624.00
2018-05-19T16:25:52.171Z,46496.00
2018-05-19T16:26:52.180Z,53600.00
2018-05-19T16:27:52.131Z,46944.00
2018-05-19T16:28:52.121Z,45408.00
2018-05-19T16:29:52.123Z,65920.00
2018-05-19T16:30:52.112Z,63552.00
2018-05-19T16:31:52.093Z,38784.00
2018-05-19T16:32:52.065Z,38176.00
2018-05-19T16:33:52.030Z,31552.00
2018-05-19T16:34:52.023Z,31008.00
2018-05-19T16:35:51.993Z,40352.00
2018-05-19T16:36:51.992Z,50496.00
2018-05-19T16:37:51.957Z,31776.00
2018-05-19T16:38:51.941Z,30432.00
2018-05-19T16:39:51.924Z,39808.00
2018-05-19T16:40:51.919Z,34240.00
2018-05-19T16:41:51.898Z,46208.00
2018-05-19T16:42:51.874Z,39136.00
2018-05-19T16:43:51.882Z,31808.00
2018-05-19T16:44:51.861Z,33024.00
2018-05-19T16:45:51.817Z,25760.00
2018-05-19T16:46:51.825Z,28320.00
2018-05-19T16:47:51.806Z,21952.00
2018-05-19T16:48:51.760Z,24800.00
2018-05-19T16:49:51.769Z,28352.00
2018-05-19T16:50:51.755Z,71520.00
2018-05-19T16:51:51.725Z,32096.00
2018-05-19T16:52:51.701Z,32896.00
2018-05-19T16:53:51.700Z,92192.00
2018-05-19T16:54:51.655Z,36736.00
2018-05-19T16:55:51.647Z,79136.00
2018-05-19T16:56:51.615Z,42176.00
2018-05-19T16:57:51.627Z,33472.00
2018-05-19T16:58:51.590Z,40320.00
2018-05-19T16:59:51.564Z,35200.00
2018-05-19T17:00:51.560Z,25312.00
2018-05-19T17:01:51.536Z,23392.00
2018-05-19T17:02:51.538Z,18592.00
2018-05-19T17:03:51.491Z,18880.00
2018-05-19T17:04:51.473Z,21120.00
2018-05-19T17:05:51.476Z,29568.00
2018-05-19T17:07:24.641Z,15224.00
2018-05-19T17:07:51.444Z,13788.00
2018-05-19T17:08:51.401Z,14752.00
2018-05-19T17:09:51.404Z,13664.00
2018-05-19T17:10:51.381Z,12256.00
2018-05-19T17:11:51.337Z,10624.00
2018-05-19T17:12:51.345Z,9340.00
2018-05-19T17:13:51.303Z,11312.00
2018-05-19T17:14:51.280Z,10256.00
2018-05-19T17:15:51.284Z,6568.00
2018-05-19T17:16:51.243Z,6628.00
2018-05-19T17:17:51.253Z,8388.00
2018-05-19T17:18:51.225Z,9004.00
2018-05-19T17:19:51.185Z,5436.00
2018-05-19T17:20:51.159Z,4032.00
2018-05-19T17:21:51.142Z,6416.00
2018-05-19T17:22:51.152Z,9244.00
2018-05-19T17:23:51.128Z,8972.00
2018-05-19T17:24:51.082Z,8788.00
2018-05-19T17:25:51.091Z,8872.00
2018-05-19T17:26:51.067Z,11116.00
2018-05-19T17:27:51.046Z,12024.00
2018-05-19T17:28:51.000Z,8568.00
2018-05-19T17:29:50.974Z,5000.00
2018-05-19T17:30:50.958Z,7736.00
2018-05-19T17:31:50.959Z,12768.00
2018-05-19T17:32:50.920Z,14000.00
2018-05-19T17:33:50.924Z,17568.00
2018-05-19T17:34:50.896Z,15320.00
2018-05-19T17:35:50.851Z,13100.00
2018-05-19T17:36:50.858Z,11124.00
2018-05-19T17:37:50.810Z,13340.00
2018-05-19T17:38:50.787Z,12396.00
2018-05-19T17:39:50.776Z,10672.00
2018-05-19T17:40:50.777Z,9068.00
2018-05-19T17:41:50.727Z,12868.00
2018-05-19T17:42:50.706Z,16524.00
2018-05-19T17:43:50.683Z,17696.00
2018-05-19T17:44:50.688Z,26176.00
2018-05-19T17:45:50.675Z,62688.00
2018-05-19T17:46:50.627Z,105120.00
2018-05-19T17:47:50.634Z,102496.00
2018-05-19T17:48:50.610Z,71840.00
2018-05-19T17:49:50.560Z,81376.00
2018-05-19T17:50:50.575Z,53024.00
2018-05-19T17:51:50.526Z,86080.00
2018-05-19T17:52:50.508Z,46080.00
2018-05-19T17:53:50.499Z,32896.00
2018-05-19T17:54:50.480Z,48224.00
2018-05-19T17:55:50.451Z,103584.00
2018-05-19T17:56:50.437Z,55392.00
2018-05-19T17:57:50.417Z,32416.00
2018-05-19T17:58:50.400Z,29600.00
2018-05-19T17:59:50.381Z,24544.00
2018-05-19T18:00:50.389Z,28800.00
2018-05-19T18:01:50.349Z,44448.00
2018-05-19T18:02:50.325Z,48672.00
2018-05-19T18:03:50.309Z,50944.00
2018-05-19T18:04:50.296Z,56960.00
2018-05-19T18:05:50.287Z,44160.00
2018-05-19T18:06:50.258Z,74112.00
2018-05-19T18:07:50.261Z,58880.00
2018-05-19T18:08:50.241Z,67840.00
2018-05-19T18:09:50.225Z,65472.00
2018-05-19T18:10:50.184Z,24224.00
2018-05-19T18:11:50.189Z,49600.00
2018-05-19T18:12:50.176Z,29376.00
2018-05-19T18:13:50.156Z,26496.00
2018-05-19T18:14:50.113Z,14684.00
2018-05-19T18:15:50.102Z,12324.00
2018-05-19T18:16:50.072Z,9528.00
2018-05-19T18:17:50.061Z,7716.00
2018-05-19T18:18:50.336Z,6364.00
2018-05-19T18:19:50.017Z,5876.00
2018-05-19T18:20:50.006Z,5456.00
2018-05-19T18:21:49.990Z,6184.00
2018-05-19T18:22:49.967Z,7244.00
2018-05-19T18:23:49.935Z,6324.00
2018-05-19T18:24:49.946Z,4424.00
2018-05-19T18:25:49.901Z,5072.00
2018-05-19T18:26:49.914Z,5380.00
2018-05-19T18:27:49.866Z,4388.00
2018-05-19T18:28:49.844Z,6188.00
2018-05-19T18:29:49.953Z,8732.00
2018-05-19T18:30:49.829Z,11352.00
2018-05-19T18:31:49.781Z,13768.00
2018-05-19T18:32:49.760Z,14700.00
2018-05-19T18:33:49.769Z,12860.00
2018-05-19T18:34:49.739Z,10768.00
2018-05-19T18:35:49.707Z,10868.00
2018-05-19T18:36:49.790Z,12888.00
2018-05-19T18:37:49.658Z,13336.00
2018-05-19T18:38:49.640Z,15104.00
2018-05-19T18:39:49.641Z,15396.00
2018-05-19T18:40:49.624Z,13892.00
2018-05-19T18:41:49.575Z,10972.00
2018-05-19T18:42:49.554Z,12492.00
2018-05-19T18:43:49.533Z,13072.00
2018-05-19T18:44:49.551Z,12432.00
2018-05-19T18:45:49.517Z,11568.00
2018-05-19T18:46:49.476Z,11508.00
2018-05-19T18:47:49.479Z,10392.00
2018-05-19T18:48:49.456Z,8976.00
2018-05-19T18:49:49.439Z,8380.00
2018-05-19T18:50:49.396Z,6920.00
2018-05-19T18:51:49.400Z,5804.00
2018-05-19T18:52:49.381Z,6032.00
2018-05-19T18:53:49.359Z,6148.00
2018-05-19T18:54:49.339Z,6392.00
2018-05-19T18:55:49.289Z,6820.00
2018-05-19T18:56:49.273Z,5848.00
2018-05-19T18:57:49.350Z,4864.00
2018-05-19T18:58:49.233Z,4288.00
2018-05-19T18:59:49.204Z,4084.00
2018-05-19T19:00:49.190Z,4048.00
2018-05-19T19:01:49.168Z,4868.00
2018-05-19T19:02:49.135Z,5312.00
2018-05-19T19:03:49.122Z,4672.00
2018-05-19T19:04:49.109Z,5440.00
2018-05-19T19:05:49.087Z,5392.00
2018-05-19T19:06:49.082Z,5224.00
2018-05-19T19:07:49.032Z,5264.00
2018-05-19T19:08:49.009Z,5424.00
2018-05-19T19:09:49.199Z,6300.00
2018-05-19T19:10:48.977Z,7360.00
2018-05-19T19:11:48.948Z,6616.00
2018-05-19T19:12:48.940Z,6700.00
2018-05-19T19:13:48.935Z,7880.00
2018-05-19T19:14:48.917Z,6840.00
2018-05-19T19:15:48.871Z,7032.00
2018-05-19T19:16:48.851Z,6336.00
2018-05-19T19:17:48.823Z,5376.00
2018-05-19T19:18:48.798Z,5064.00
2018-05-19T19:19:48.786Z,4548.00
2018-05-19T19:20:48.811Z,4188.00
2018-05-19T19:21:48.752Z,5592.00
2018-05-19T19:22:48.748Z,7120.00
2018-05-19T19:23:48.698Z,6652.00
2018-05-19T19:24:48.683Z,5184.00
2018-05-19T19:25:48.683Z,3716.00
2018-05-19T19:26:48.637Z,2852.00
2018-05-19T19:27:48.637Z,1964.00
2018-05-19T19:28:48.584Z,1628.00
2018-05-19T19:29:48.589Z,1948.00
2018-05-19T19:30:48.574Z,2204.00
2018-05-19T19:31:48.552Z,2276.00
2018-05-19T19:32:48.501Z,2488.00
2018-05-19T19:33:48.483Z,2460.00
2018-05-19T19:34:48.460Z,2524.00
2018-05-19T19:35:48.434Z,2524.00
2018-05-19T19:36:48.417Z,2660.00
2018-05-19T19:37:48.427Z,3040.00
2018-05-19T19:38:48.380Z,3304.00
2018-05-19T19:39:48.365Z,3400.00
2018-05-19T19:40:48.358Z,3216.00
2018-05-19T19:41:48.310Z,3136.00
2018-05-19T19:42:48.359Z,3036.00
2018-05-19T19:43:48.276Z,3028.00
2018-05-19T19:44:48.268Z,2956.00
2018-05-19T19:45:48.224Z,2940.00
2018-05-19T19:46:48.228Z,2872.00
2018-05-19T19:47:48.191Z,2820.00
2018-05-19T19:48:48.158Z,2596.00
2018-05-19T19:49:48.138Z,2364.00
2018-05-19T19:50:48.112Z,2232.00
2018-05-19T19:51:48.107Z,2000.00
2018-05-19T19:52:48.073Z,1740.00
2018-05-19T19:53:48.052Z,1752.00
2018-05-19T19:54:48.031Z,1692.00
2018-05-19T19:55:48.011Z,1476.00
2018-05-19T19:56:47.986Z,1236.00
2018-05-19T19:57:47.967Z,1272.00
2018-05-19T19:58:47.948Z,1564.00
2018-05-19T19:59:47.944Z,1640.00
2018-05-19T20:00:47.922Z,1620.00
2018-05-19T20:01:47.875Z,1628.00
2018-05-19T20:02:47.857Z,1632.00
2018-05-19T20:03:47.841Z,1560.00
2018-05-19T20:04:47.805Z,1480.00
2018-05-19T20:05:47.786Z,1372.00
2018-05-19T20:06:47.766Z,1280.00
2018-05-19T20:07:47.767Z,1204.00
2018-05-19T20:08:47.721Z,1020.00
2018-05-19T20:09:47.722Z,828.00
2018-05-19T20:10:47.676Z,904.00
2018-05-19T20:11:47.689Z,708.00
2018-05-19T20:12:47.652Z,516.00
2018-05-19T20:13:47.633Z,516.00
2018-05-19T20:14:47.607Z,592.00
2018-05-19T20:15:47.590Z,592.00
2018-05-19T20:16:47.543Z,608.00
2018-05-19T20:17:47.512Z,592.00
2018-05-19T20:18:47.496Z,552.00
2018-05-19T20:19:47.469Z,520.00
2018-05-19T20:20:47.475Z,552.00
2018-05-19T20:21:47.427Z,556.00
2018-05-19T20:22:47.413Z,588.00
2018-05-19T20:23:47.383Z,652.00
2018-05-19T20:24:47.389Z,864.00
2018-05-19T20:25:47.345Z,1036.00
2018-05-19T20:26:47.345Z,1220.00
2018-05-19T20:27:47.321Z,1072.00
2018-05-19T20:28:47.276Z,976.00
2018-05-19T20:29:47.275Z,1168.00
2018-05-19T20:30:47.234Z,1148.00
2018-05-19T20:31:47.208Z,840.00
2018-05-19T20:32:47.185Z,632.00
2018-05-19T20:33:47.163Z,528.00
2018-05-19T20:34:47.167Z,432.00
2018-05-19T20:35:47.124Z,352.00
2018-05-19T20:36:47.100Z,272.00
2018-05-19T20:37:47.097Z,220.00
2018-05-19T20:38:47.062Z,156.00
2018-05-19T20:39:47.036Z,100.00
2018-05-19T20:40:47.003Z,76.00
2018-05-19T20:41:47.004Z,60.00
2018-05-19T20:42:46.967Z,44.00
2018-05-19T20:43:47.024Z,36.00
2018-05-19T20:44:46.945Z,32.00
2018-05-19T20:45:46.892Z,24.00
2018-05-19T20:46:46.877Z,20.00
2018-05-19T20:47:46.852Z,16.00
2018-05-19T20:48:46.828Z,12.00
2018-05-19T20:49:46.813Z,4.00
2018-05-19T20:50:46.790Z,8.00
2018-05-19T20:51:46.765Z,4.00
2018-05-19T20:52:46.770Z,0.00
2018-05-19T20:53:46.717Z,4.00
2018-05-19T20:54:46.698Z,4.00
2018-05-19T20:55:46.703Z,4.00
2018-05-19T20:56:46.656Z,4.00
2018-05-19T20:57:46.640Z,0.00
2018-05-19T20:58:46.602Z,0.00
2018-05-19T20:59:46.599Z,0.00
2018-05-19T21:00:46.563Z,0.00
2018-05-19T21:01:46.536Z,0.00
2018-05-19T21:02:46.530Z,0.00
2018-05-19T21:03:46.527Z,0.00
2018-05-19T21:04:46.472Z,0.00
2018-05-19T21:05:46.479Z,0.00
2018-05-19T21:06:46.438Z,0.00
2018-05-19T21:07:46.413Z,0.00
2018-05-19T21:08:46.386Z,0.00
2018-05-19T21:09:46.392Z,0.00
2018-05-19T21:10:46.349Z,0.00
2018-05-19T21:11:46.321Z,0.00
2018-05-19T21:12:46.322Z,0.00
2018-05-19T21:13:46.275Z,0.00
2018-05-19T21:14:46.260Z,0.00
2018-05-19T21:15:46.235Z,0.00
2018-05-19T21:16:46.212Z,0.00
2018-05-19T21:17:46.215Z,0.00
2018-05-19T21:18:46.241Z,0.00
2018-05-19T21:19:46.169Z,0.00
2018-05-19T21:20:46.120Z,0.00
2018-05-19T21:21:46.102Z,0.00
2018-05-19T21:22:46.101Z,0.00
2018-05-19T21:23:46.070Z,0.00
2018-05-19T21:24:46.048Z,0.00
2018-05-19T21:25:46.027Z,0.00
2018-05-19T21:26:46.032Z,0.00
2018-05-19T21:27:46.147Z,0.00
2018-05-19T21:28:45.968Z,0.00
2018-05-19T21:29:45.945Z,0.00
2018-05-19T21:30:45.915Z,0.00
2018-05-19T21:31:45.904Z,0.00
2018-05-19T21:32:45.862Z,0.00
2018-05-19T21:33:45.906Z,0.00
2018-05-19T21:34:45.825Z,0.00
2018-05-19T21:35:45.803Z,0.00
2018-05-19T21:36:45.781Z,0.00
2018-05-19T21:37:45.743Z,0.00
2018-05-19T21:38:45.745Z,0.00
2018-05-19T21:39:45.728Z,0.00
2018-05-19T21:40:45.705Z,0.00
2018-05-19T21:41:45.661Z,0.00
2018-05-19T21:42:45.636Z,0.00
2018-05-19T21:43:45.607Z,0.00
2018-05-19T21:44:45.586Z,0.00
2018-05-19T21:45:45.565Z,0.00
2018-05-19T21:46:45.539Z,0.00
2018-05-19T21:47:45.522Z,0.00
2018-05-19T21:48:45.515Z,0.00
2018-05-19T21:49:45.478Z,0.00
2018-05-19T21:50:45.470Z,0.00
2018-05-19T21:51:45.436Z,0.00
2018-05-19T21:52:45.433Z,0.00
2018-05-19T21:53:45.386Z,0.00
2018-05-19T21:54:45.364Z,0.00
2018-05-19T21:55:45.354Z,0.00
2018-05-19T21:56:45.319Z,0.00
2018-05-19T21:57:45.300Z,0.00
2018-05-19T21:58:45.274Z,0.00
2018-05-19T21:59:45.280Z,0.00
2018-05-19T22:00:45.227Z,0.00
2018-05-19T22:01:45.238Z,0.00
2018-05-19T22:02:45.200Z,0.00
2018-05-19T22:03:45.159Z,0.00
2018-05-19T22:04:45.149Z,0.00
2018-05-19T22:05:45.125Z,0.00
2018-05-19T22:06:45.121Z,0.00
2018-05-19T22:07:45.100Z,0.00
2018-05-19T22:08:45.057Z,0.00
2018-05-19T22:09:45.029Z,0.00
2018-05-19T22:10:45.009Z,0.00
2018-05-19T22:11:44.988Z,0.00
2018-05-19T22:12:44.967Z,0.00
2018-05-19T22:13:44.963Z,0.00
2018-05-19T22:14:44.947Z,0.00
2018-05-19T22:15:44.904Z,0.00
2018-05-19T22:16:44.902Z,0.00
2018-05-19T22:17:44.881Z,0.00
2018-05-19T22:18:44.863Z,0.00
2018-05-19T22:19:44.808Z,0.00
2018-05-19T22:20:44.797Z,0.00
2018-05-19T22:21:44.784Z,0.00
2018-05-19T22:22:44.734Z,0.00
2018-05-19T22:23:44.724Z,0.00
2018-05-19T22:24:44.721Z,0.00
2018-05-19T22:25:44.698Z,0.00
2018-05-19T22:26:44.652Z,0.00
2018-05-19T22:27:44.625Z,0.00
2018-05-19T22:28:44.631Z,0.00
2018-05-19T22:29:44.608Z,0.00
2018-05-19T22:30:44.573Z,0.00
2018-05-19T22:31:44.560Z,0.00
2018-05-19T22:32:44.543Z,0.00
2018-05-19T22:33:44.497Z,0.00
2018-05-19T22:34:44.494Z,0.00
2018-05-19T22:35:44.485Z,0.00
2018-05-19T22:36:44.451Z,0.00
2018-05-19T22:37:44.405Z,0.00
2018-05-19T22:38:44.407Z,0.00
2018-05-19T22:39:44.357Z,0.00
2018-05-19T22:40:44.356Z,0.00
2018-05-19T22:41:44.324Z,0.00
2018-05-19T22:42:44.286Z,0.00
2018-05-19T22:43:44.282Z,0.00
2018-05-19T22:44:44.267Z,0.00
2018-05-19T22:45:44.216Z,0.00
2018-05-19T22:46:44.226Z,0.00
2018-05-19T22:47:44.178Z,0.00
2018-05-19T22:48:44.157Z,0.00
2018-05-19T22:49:44.130Z,0.00
2018-05-19T22:50:44.133Z,0.00
2018-05-19T22:51:44.089Z,0.00
2018-05-19T22:52:44.067Z,0.00
2018-05-19T22:53:44.066Z,0.00
2018-05-19T22:54:44.018Z,0.00
2018-05-19T22:55:44.023Z,0.00
2018-05-19T22:56:44.000Z,0.00
2018-05-19T22:57:43.959Z,0.00
2018-05-19T22:58:43.960Z,0.00
2018-05-19T22:59:43.917Z,0.00
2018-05-19T23:00:43.887Z,0.00
2018-05-19T23:01:43.888Z,0.00
2018-05-19T23:02:43.847Z,0.00
2018-05-19T23:03:43.845Z,0.00
2018-05-19T23:04:43.826Z,0.00
2018-05-19T23:05:43.776Z,0.00
2018-05-19T23:06:43.756Z,0.00
2018-05-19T23:07:43.752Z,0.00
2018-05-19T23:08:43.730Z,0.00
2018-05-19T23:09:43.710Z,0.00
2018-05-19T23:10:43.689Z,0.00
2018-05-19T23:11:43.640Z,0.00
2018-05-19T23:12:43.613Z,0.00
2018-05-19T23:13:43.587Z,0.00
2018-05-19T23:14:43.577Z,0.00
2018-05-19T23:15:43.549Z,0.00
2018-05-19T23:16:43.530Z,0.00
2018-05-19T23:17:43.501Z,0.00
2018-05-19T23:18:43.507Z,0.00
2018-05-19T23:19:43.459Z,0.00
2018-05-19T23:20:43.465Z,0.00
2018-05-19T23:21:43.414Z,0.00
2018-05-19T23:22:43.404Z,0.00
2018-05-19T23:23:43.381Z,0.00
2018-05-19T23:24:43.346Z,0.00
2018-05-19T23:25:43.352Z,0.00
2018-05-19T23:26:43.302Z,0.00
2018-05-19T23:27:43.281Z,0.00
2018-05-19T23:28:43.257Z,0.00
2018-05-19T23:29:43.261Z,0.00
2018-05-19T23:30:43.232Z,0.00
2018-05-19T23:31:43.197Z,0.00
2018-05-19T23:32:43.163Z,0.00
2018-05-19T23:33:43.178Z,0.00
2018-05-19T23:34:43.151Z,0.00
2018-05-19T23:35:43.107Z,0.00
2018-05-19T23:36:43.078Z,0.00
2018-05-19T23:37:43.047Z,0.00
2018-05-19T23:38:43.029Z,0.00
2018-05-19T23:39:43.007Z,0.00
2018-05-19T23:40:42.983Z,0.00
2018-05-19T23:41:42.970Z,0.00
2018-05-19T23:42:42.936Z,0.00
2018-05-19T23:43:42.920Z,0.00
2018-05-19T23:44:42.917Z,0.00
2018-05-19T23:45:42.896Z,0.00
2018-05-19T23:46:42.849Z,0.00
2018-05-19T23:47:42.848Z,0.00
2018-05-19T23:48:42.801Z,0.00
2018-05-19T23:49:42.781Z,0.00
2018-05-19T23:50:42.769Z,0.00
2018-05-19T23:51:42.732Z,0.00
2018-05-19T23:52:42.709Z,0.00
2018-05-19T23:53:42.690Z,0.00
2018-05-19T23:54:42.665Z,0.00
2018-05-19T23:55:42.647Z,0.00
2018-05-19T23:56:42.623Z,0.00
2018-05-19T23:57:42.604Z,0.00
2018-05-19T23:58:42.575Z,0.00
2018-05-19T23:59:42.580Z,0.00
